createdAt,value
2019-02-04T00:02:26.520Z,99.90
2019-02-04T00:04:57.153Z,99.90
2019-02-04T00:07:28.454Z,99.90
2019-02-04T00:09:59.486Z,99.90
2019-02-04T00:12:30.433Z,99.90
2019-02-04T00:15:01.109Z,1.00
2019-02-04T00:17:31.736Z,99.90
2019-02-04T00:20:02.379Z,1.00
2019-02-04T00:22:32.957Z,1.00
2019-02-04T00:25:03.831Z,1.00
2019-02-04T00:27:34.415Z,1.00
2019-02-04T00:30:07.200Z,1.00
2019-02-04T00:32:37.882Z,1.00
2019-02-04T00:35:08.646Z,1.00
2019-02-04T00:37:39.243Z,1.00
2019-02-04T00:40:15.323Z,99.90
2019-02-04T00:42:45.940Z,99.90
2019-02-04T00:45:16.481Z,1.00
2019-02-04T00:47:47.149Z,1.00
2019-02-04T00:50:18.246Z,26.10
2019-02-04T00:52:49.327Z,99.90
2019-02-04T00:55:20.307Z,99.90
2019-02-04T00:57:50.860Z,99.90
2019-02-04T01:00:26.916Z,99.90
2019-02-04T01:02:58.054Z,59.40
2019-02-04T01:05:28.683Z,99.90
2019-02-04T01:07:59.649Z,99.90
2019-02-04T01:10:30.257Z,99.90
2019-02-04T01:13:01.313Z,1.00
2019-02-04T01:15:31.870Z,1.00
2019-02-04T01:18:02.553Z,21.80
2019-02-04T01:20:33.231Z,96.80
2019-02-04T01:23:04.016Z,99.50
2019-02-04T01:25:34.605Z,52.60
2019-02-04T01:28:05.417Z,45.50
2019-02-04T01:30:36.015Z,99.90
2019-02-04T01:33:06.663Z,99.90
2019-02-04T01:35:37.281Z,99.90
2019-02-04T01:38:07.999Z,99.90
2019-02-04T01:40:38.641Z,99.90
2019-02-04T01:43:09.524Z,1.00
2019-02-04T01:45:40.341Z,98.80
2019-02-04T01:48:10.879Z,99.90
2019-02-04T01:50:42.130Z,99.90
2019-02-04T01:53:12.822Z,1.00
2019-02-04T01:55:43.407Z,1.00
2019-02-04T01:58:13.971Z,53.80
2019-02-04T02:00:44.719Z,99.90
2019-02-04T02:03:15.416Z,99.90
2019-02-04T02:05:46.009Z,99.90
2019-02-04T02:08:16.589Z,99.90
2019-02-04T02:10:47.190Z,99.90
2019-02-04T02:13:18.175Z,99.90
2019-02-04T02:15:49.472Z,99.90
2019-02-04T02:18:20.170Z,99.90
2019-02-04T02:20:50.798Z,99.90
2019-02-04T02:23:21.510Z,53.50
2019-02-04T02:25:52.464Z,26.30
2019-02-04T02:28:23.635Z,1.00
2019-02-04T02:30:54.597Z,1.00
2019-02-04T02:33:25.461Z,1.00
2019-02-04T02:35:56.047Z,99.90
2019-02-04T02:38:27.155Z,1.00
2019-02-04T02:40:58.024Z,99.90
2019-02-04T02:43:28.592Z,99.90
2019-02-04T02:45:59.669Z,99.90
2019-02-04T02:48:30.217Z,99.90
2019-02-04T02:51:00.916Z,91.10
2019-02-04T02:53:31.476Z,2.30
2019-02-04T02:56:02.178Z,99.90
2019-02-04T02:58:32.758Z,84.70
2019-02-04T03:01:04.098Z,99.90
2019-02-04T03:03:34.802Z,99.90
2019-02-04T03:06:05.371Z,57.80
2019-02-04T03:08:36.972Z,62.40
2019-02-04T03:11:07.528Z,90.30
2019-02-04T03:13:38.245Z,50.40
2019-02-04T03:16:08.846Z,99.90
2019-02-04T03:18:39.604Z,99.90
2019-02-04T03:21:10.526Z,99.90
2019-02-04T03:23:41.617Z,99.90
2019-02-04T03:26:12.185Z,87.70
2019-02-04T03:28:42.946Z,19.90
2019-02-04T03:31:13.500Z,99.90
2019-02-04T03:33:44.289Z,99.90
2019-02-04T03:36:14.840Z,99.90
2019-02-04T03:38:45.465Z,99.90
2019-02-04T03:41:16.021Z,99.90
2019-02-04T03:43:47.043Z,1.00
2019-02-04T03:46:17.591Z,1.00
2019-02-04T03:48:48.628Z,1.00
2019-02-04T03:51:19.199Z,1.00
2019-02-04T03:53:49.869Z,1.00
2019-02-04T03:56:20.783Z,1.00
2019-02-04T03:58:51.432Z,1.00
2019-02-04T04:01:21.976Z,1.00
2019-02-04T04:03:52.877Z,1.00
2019-02-04T04:06:23.781Z,1.00
2019-02-04T04:08:55.223Z,1.00
2019-02-04T04:11:26.173Z,1.00
2019-02-04T04:13:56.867Z,1.00
2019-02-04T04:16:27.432Z,10.40
2019-02-04T04:18:58.685Z,44.40
2019-02-04T04:21:29.614Z,4.20
2019-02-04T04:24:00.315Z,57.30
2019-02-04T04:26:30.875Z,99.90
2019-02-04T04:29:01.747Z,99.90
2019-02-04T04:31:32.309Z,99.90
2019-02-04T04:34:03.110Z,99.90
2019-02-04T04:36:34.019Z,99.90
2019-02-04T04:39:06.459Z,99.90
2019-02-04T04:41:37.315Z,99.90
2019-02-04T04:44:07.904Z,99.90
2019-02-04T04:46:38.986Z,99.90
2019-02-04T04:49:09.559Z,99.90
2019-02-04T04:51:40.306Z,99.90
2019-02-04T04:54:11.207Z,99.90
2019-02-04T04:56:41.873Z,99.90
2019-02-04T04:59:12.787Z,99.90
2019-02-04T05:01:43.582Z,99.90
2019-02-04T05:04:14.641Z,99.90
2019-02-04T05:06:45.331Z,99.90
2019-02-04T05:09:15.955Z,99.90
2019-02-04T05:11:46.701Z,99.90
2019-02-04T05:14:17.562Z,99.90
2019-02-04T05:16:48.943Z,99.90
2019-02-04T05:19:19.524Z,99.90
2019-02-04T05:21:50.283Z,99.90
2019-02-04T05:24:20.848Z,99.90
2019-02-04T05:26:51.633Z,99.90
2019-02-04T05:29:22.181Z,99.90
2019-02-04T05:31:52.866Z,99.90
2019-02-04T05:34:23.423Z,99.90
2019-02-04T05:36:54.156Z,99.90
2019-02-04T05:39:25.007Z,99.90
2019-02-04T05:41:55.748Z,99.90
2019-02-04T05:44:26.330Z,99.90
2019-02-04T05:46:57.059Z,99.90
2019-02-04T05:49:27.654Z,99.90
2019-02-04T05:51:58.864Z,99.90
2019-02-04T05:54:29.489Z,99.90
2019-02-04T05:57:00.198Z,99.90
2019-02-04T05:59:30.758Z,99.90
2019-02-04T06:02:01.459Z,99.90
2019-02-04T06:04:32.420Z,99.90
2019-02-04T06:07:03.000Z,99.90
2019-02-04T06:09:33.758Z,99.90
2019-02-04T06:12:04.758Z,99.90
2019-02-04T06:14:35.409Z,99.90
2019-02-04T06:17:06.424Z,99.90
2019-02-04T06:19:37.093Z,99.90
2019-02-04T06:22:07.677Z,99.90
2019-02-04T06:24:38.362Z,99.90
2019-02-04T06:27:10.319Z,99.90
2019-02-04T06:29:41.260Z,99.90
2019-02-04T06:32:11.893Z,99.90
2019-02-04T06:34:42.617Z,99.90
2019-02-04T06:37:13.255Z,99.90
2019-02-04T06:39:44.075Z,99.90
2019-02-04T06:42:14.643Z,99.90
2019-02-04T06:44:45.648Z,99.90
2019-02-04T06:47:16.230Z,99.90
2019-02-04T06:49:46.977Z,99.90
2019-02-04T06:52:17.556Z,99.90
2019-02-04T06:54:48.554Z,99.90
2019-02-04T06:57:19.507Z,99.90
2019-02-04T06:59:50.161Z,99.90
2019-02-04T07:02:20.734Z,99.90
2019-02-04T07:04:51.418Z,99.90
2019-02-04T07:07:22.176Z,99.90
2019-02-04T07:09:53.166Z,99.90
2019-02-04T07:12:25.993Z,99.90
2019-02-04T07:14:56.714Z,99.90
2019-02-04T07:17:27.293Z,99.90
2019-02-04T07:19:57.883Z,99.90
2019-02-04T07:22:28.441Z,99.90
2019-02-04T07:24:59.604Z,99.90
2019-02-04T07:27:30.509Z,99.90
2019-02-04T07:30:01.249Z,99.90
2019-02-04T07:32:31.826Z,99.90
2019-02-04T07:35:02.783Z,99.90
2019-02-04T07:37:33.729Z,99.90
2019-02-04T07:40:05.121Z,99.90
2019-02-04T07:42:35.773Z,99.90
2019-02-04T07:45:07.412Z,99.90
2019-02-04T07:47:38.083Z,99.90
2019-02-04T07:50:10.005Z,99.90
2019-02-04T07:52:40.697Z,99.90
2019-02-04T07:55:11.917Z,99.90
2019-02-04T07:57:42.946Z,99.90
2019-02-04T08:00:18.339Z,99.90
2019-02-04T08:02:49.568Z,99.90
2019-02-04T08:05:20.108Z,99.90
2019-02-04T08:07:50.673Z,99.90
2019-02-04T08:10:21.947Z,99.90
2019-02-04T08:13:01.108Z,99.90
2019-02-04T08:15:31.984Z,99.90
2019-02-04T08:18:02.921Z,99.90
2019-02-04T08:20:33.489Z,99.90
2019-02-04T08:23:04.173Z,99.90
2019-02-04T08:25:35.127Z,99.90
2019-02-04T08:28:05.962Z,99.90
2019-02-04T08:30:38.678Z,99.90
2019-02-04T08:33:09.507Z,82.30
2019-02-04T08:35:40.154Z,13.40
2019-02-04T08:38:11.078Z,1.00
2019-02-04T08:40:42.008Z,99.90
2019-02-04T08:43:12.600Z,99.90
2019-02-04T08:45:43.535Z,1.00
2019-02-04T08:48:14.532Z,99.90
2019-02-04T08:50:45.421Z,99.90
2019-02-04T08:53:16.271Z,99.90
2019-02-04T08:55:46.963Z,99.90
2019-02-04T08:58:17.530Z,1.00
2019-02-04T09:00:48.443Z,99.90
2019-02-04T09:03:19.041Z,99.90
2019-02-04T09:05:49.674Z,99.90
2019-02-04T09:08:20.511Z,99.90
2019-02-04T09:10:51.079Z,99.90
2019-02-04T09:13:21.768Z,99.90
2019-02-04T09:15:52.345Z,99.90
2019-02-04T09:18:23.049Z,1.00
2019-02-04T09:20:53.720Z,1.00
2019-02-04T09:23:24.387Z,99.90
2019-02-04T09:25:54.933Z,24.70
2019-02-04T09:28:25.657Z,99.90
2019-02-04T09:30:56.218Z,1.00
2019-02-04T09:33:26.918Z,24.70
2019-02-04T09:35:58.013Z,1.00
2019-02-04T09:38:29.047Z,1.00
2019-02-04T09:40:59.604Z,1.00
2019-02-04T09:43:30.805Z,1.00
2019-02-04T09:46:01.378Z,1.00
2019-02-04T09:48:32.415Z,1.00
2019-02-04T09:51:04.231Z,1.00
2019-02-04T09:53:35.171Z,1.00
2019-02-04T09:56:06.325Z,1.00
2019-02-04T09:58:37.202Z,1.00
2019-02-04T10:01:08.382Z,1.00
2019-02-04T10:03:38.950Z,99.90
2019-02-04T10:06:09.615Z,99.90
2019-02-04T10:08:40.332Z,99.90
2019-02-04T10:11:11.105Z,48.70
2019-02-04T10:13:41.797Z,1.00
2019-02-04T10:16:12.423Z,1.00
2019-02-04T10:18:44.102Z,1.00
2019-02-04T10:21:15.069Z,1.00
2019-02-04T10:23:45.954Z,1.00
2019-02-04T10:26:16.619Z,99.90
2019-02-04T10:28:47.340Z,99.90
2019-02-04T10:31:17.960Z,99.90
2019-02-04T10:33:48.625Z,99.90
2019-02-04T10:36:19.242Z,99.90
2019-02-04T10:38:50.307Z,99.90
2019-02-04T10:41:21.075Z,99.90
2019-02-04T10:43:52.090Z,99.90
2019-02-04T10:46:22.659Z,99.90
2019-02-04T10:48:53.770Z,99.90
2019-02-04T10:51:24.785Z,99.90
2019-02-04T10:53:55.705Z,99.90
2019-02-04T10:56:26.281Z,99.90
2019-02-04T10:58:56.827Z,99.90
2019-02-04T11:01:27.401Z,99.90
2019-02-04T11:03:58.464Z,99.90
2019-02-04T11:06:29.078Z,99.90
2019-02-04T11:08:59.699Z,99.90
2019-02-04T11:11:30.277Z,99.90
2019-02-04T11:14:00.968Z,99.90
2019-02-04T11:16:31.634Z,99.90
2019-02-04T11:19:02.687Z,99.90
2019-02-04T11:21:34.051Z,99.90
2019-02-04T11:24:05.243Z,99.90
2019-02-04T11:26:36.164Z,99.90
2019-02-04T11:29:07.013Z,99.90
2019-02-04T11:31:37.752Z,99.90
2019-02-04T11:34:08.405Z,99.90
2019-02-04T11:36:39.038Z,99.90
2019-02-04T11:39:10.966Z,99.90
2019-02-04T11:41:41.735Z,99.90
2019-02-04T11:44:12.412Z,99.90
2019-02-04T11:46:42.995Z,99.90
2019-02-04T11:49:13.675Z,99.90
2019-02-04T11:51:44.603Z,99.90
2019-02-04T11:54:15.592Z,99.90
2019-02-04T11:56:47.152Z,99.90
2019-02-04T11:59:18.391Z,99.90
2019-02-04T12:01:49.002Z,99.90
2019-02-04T12:04:19.701Z,99.90
2019-02-04T12:06:50.521Z,99.90
2019-02-04T12:09:21.521Z,99.90
2019-02-04T12:11:55.637Z,99.90
2019-02-04T12:14:25.434Z,99.90
2019-02-04T12:16:59.053Z,99.90
2019-02-04T12:19:28.664Z,99.90
2019-02-04T12:21:59.337Z,99.90
2019-02-04T12:24:31.693Z,99.90
2019-02-04T12:27:02.341Z,99.90
2019-02-04T12:29:32.963Z,99.90
2019-02-04T12:32:03.619Z,99.90
2019-02-04T12:34:34.232Z,99.90
2019-02-04T12:37:05.122Z,99.90
2019-02-04T12:39:35.845Z,99.90
2019-02-04T12:42:06.831Z,99.90
2019-02-04T12:44:37.415Z,99.90
2019-02-04T12:47:08.767Z,99.90
2019-02-04T12:49:40.089Z,99.90
2019-02-04T12:52:10.885Z,99.90
2019-02-04T12:54:41.578Z,97.80
2019-02-04T12:57:12.153Z,92.30
2019-02-04T12:59:45.147Z,91.90
2019-02-04T13:02:15.076Z,91.60
2019-02-04T13:04:45.782Z,91.20
2019-02-04T13:07:16.353Z,91.20
2019-02-04T13:09:46.950Z,91.30
2019-02-04T13:12:17.531Z,91.30
2019-02-04T13:14:48.212Z,91.30
2019-02-04T13:17:19.152Z,91.70
2019-02-04T13:19:49.828Z,91.60
2019-02-04T13:22:20.686Z,91.40
2019-02-04T13:24:51.398Z,91.60
2019-02-04T13:27:21.969Z,91.60
2019-02-04T13:29:52.868Z,91.60
2019-02-04T13:32:23.408Z,91.80
2019-02-04T13:34:55.387Z,91.10
2019-02-04T13:37:26.559Z,91.90
2019-02-04T13:39:57.279Z,91.90
2019-02-04T13:42:28.628Z,91.20
2019-02-04T13:44:59.630Z,91.90
2019-02-04T13:47:30.222Z,91.40
2019-02-04T13:50:00.886Z,92.00
2019-02-04T13:52:31.483Z,91.60
2019-02-04T13:55:02.152Z,91.70
2019-02-04T13:57:33.101Z,91.70
2019-02-04T14:00:04.339Z,94.00
2019-02-04T14:02:35.177Z,91.60
2019-02-04T14:05:06.828Z,92.30
2019-02-04T14:07:37.391Z,92.20
2019-02-04T14:10:18.427Z,92.00
2019-02-04T14:12:49.380Z,91.40
2019-02-04T14:15:20.362Z,97.40
2019-02-04T14:17:51.076Z,91.80
2019-02-04T14:20:22.432Z,91.10
2019-02-04T14:22:53.550Z,91.40
2019-02-04T14:25:24.349Z,91.50
2019-02-04T14:27:54.951Z,91.40
2019-02-04T14:30:29.554Z,91.40
2019-02-04T14:33:00.426Z,91.40
2019-02-04T14:35:31.287Z,91.20
2019-02-04T14:38:02.609Z,91.00
2019-02-04T14:40:33.521Z,91.40
2019-02-04T14:43:19.270Z,91.00
2019-02-04T14:46:52.075Z,91.00
2019-02-04T14:50:25.955Z,91.90
2019-02-04T14:54:02.142Z,91.40
2019-02-04T14:57:07.850Z,91.30
2019-02-04T14:59:52.659Z,91.90
2019-02-04T15:03:19.033Z,91.30
2019-02-04T15:06:12.704Z,91.70
2019-02-04T15:09:38.042Z,91.50
2019-02-04T15:12:41.435Z,91.50
2019-02-04T15:16:05.062Z,91.20
2019-02-04T15:19:32.793Z,91.30
2019-02-04T15:22:56.803Z,91.20
2019-02-04T15:26:33.644Z,90.80
2019-02-04T15:29:29.533Z,91.10
2019-02-04T15:32:51.901Z,90.40
2019-02-04T15:36:29.425Z,90.50
2019-02-04T15:40:00.951Z,90.30
2019-02-04T15:43:25.145Z,90.20
2019-02-04T15:46:41.091Z,90.40
2019-02-04T15:50:21.090Z,90.20
2019-02-04T15:52:51.830Z,90.90
2019-02-04T15:55:22.885Z,90.30
2019-02-04T15:57:53.607Z,90.20
2019-02-04T16:00:24.553Z,90.00
2019-02-04T16:02:55.179Z,90.00
2019-02-04T16:05:26.206Z,90.00
2019-02-04T16:07:57.510Z,90.10
2019-02-04T16:10:28.292Z,93.30
2019-02-04T16:12:58.973Z,97.30
2019-02-04T16:15:29.534Z,90.00
2019-02-04T16:18:00.594Z,90.40
2019-02-04T16:20:31.843Z,92.50
2019-02-04T16:23:02.485Z,94.40
2019-02-04T16:25:33.101Z,90.50
2019-02-04T16:28:03.965Z,98.20
2019-02-04T16:30:34.549Z,99.90
2019-02-04T16:33:05.463Z,99.90
2019-02-04T16:35:36.036Z,99.90
2019-02-04T16:38:07.334Z,99.90
2019-02-04T16:40:38.318Z,99.90
2019-02-04T16:43:09.925Z,99.90
2019-02-04T16:45:40.630Z,99.90
2019-02-04T16:48:11.225Z,99.90
2019-02-04T16:50:41.820Z,99.90
2019-02-04T16:53:12.507Z,99.90
2019-02-04T16:55:44.069Z,99.90
2019-02-04T16:58:14.796Z,99.90
2019-02-04T17:00:45.532Z,99.90
2019-02-04T17:03:18.743Z,99.90
2019-02-04T17:05:49.185Z,99.90
2019-02-04T17:08:19.899Z,99.90
2019-02-04T17:10:50.863Z,99.90
2019-02-04T17:13:21.550Z,99.90
2019-02-04T17:15:52.849Z,99.90
2019-02-04T17:18:23.661Z,99.90
2019-02-04T17:20:54.268Z,99.90
2019-02-04T17:23:24.910Z,99.90
2019-02-04T17:25:55.523Z,99.90
2019-02-04T17:28:26.083Z,99.90
2019-02-04T17:30:56.798Z,99.90
2019-02-04T17:33:27.392Z,99.90
2019-02-04T17:35:58.069Z,99.90
2019-02-04T17:38:28.626Z,99.90
2019-02-04T17:40:59.355Z,99.90
2019-02-04T17:43:29.971Z,99.90
2019-02-04T17:46:00.930Z,99.90
2019-02-04T17:48:31.488Z,99.90
2019-02-04T17:51:02.777Z,99.90
2019-02-04T17:53:34.485Z,99.90
2019-02-04T17:56:08.553Z,99.90
2019-02-04T17:58:39.133Z,99.90
2019-02-04T18:01:10.041Z,99.90
2019-02-04T18:03:41.283Z,99.90
2019-02-04T18:06:12.119Z,99.90
2019-02-04T18:08:42.779Z,99.90
2019-02-04T18:11:13.642Z,99.90
2019-02-04T18:13:44.230Z,99.90
2019-02-04T18:16:16.701Z,99.90
2019-02-04T18:18:47.285Z,99.90
2019-02-04T18:21:18.262Z,99.90
2019-02-04T18:23:48.855Z,99.90
2019-02-04T18:26:19.691Z,99.90
2019-02-04T18:28:50.536Z,99.90
2019-02-04T18:31:21.377Z,99.90
2019-02-04T18:33:52.301Z,99.90
2019-02-04T18:36:24.288Z,99.90
2019-02-04T18:38:55.331Z,99.90
2019-02-04T18:41:26.583Z,99.90
2019-02-04T18:43:57.173Z,99.90
2019-02-04T18:46:28.424Z,99.90
2019-02-04T18:48:58.998Z,99.90
2019-02-04T18:51:30.223Z,99.90
2019-02-04T18:54:00.826Z,99.90
2019-02-04T18:56:32.613Z,99.90
2019-02-04T18:59:03.218Z,99.90
2019-02-04T19:01:33.922Z,99.90
2019-02-04T19:04:04.727Z,99.90
2019-02-04T19:06:47.115Z,99.90
2019-02-04T19:09:10.568Z,99.90
2019-02-04T19:11:41.257Z,99.90
2019-02-04T19:14:11.858Z,99.90
2019-02-04T19:16:42.666Z,99.90
2019-02-04T19:19:13.650Z,99.90
2019-02-04T19:21:44.221Z,99.90
2019-02-04T19:24:15.011Z,99.90
2019-02-04T19:26:45.586Z,99.90
2019-02-04T19:29:16.320Z,99.90
2019-02-04T19:31:47.256Z,99.90
2019-02-04T19:34:18.704Z,99.90
2019-02-04T19:36:49.264Z,99.90
2019-02-04T19:39:20.273Z,99.90
2019-02-04T19:41:51.062Z,99.90
2019-02-04T19:44:22.000Z,99.90
2019-02-04T19:46:52.571Z,99.90
2019-02-04T19:49:23.293Z,99.90
2019-02-04T19:51:55.318Z,99.90
2019-02-04T19:54:26.369Z,99.90
2019-02-04T19:56:56.923Z,99.90
2019-02-04T19:59:27.586Z,99.90
2019-02-04T20:01:58.193Z,99.90
2019-02-04T20:04:28.996Z,99.90
2019-02-04T20:06:59.932Z,99.90
2019-02-04T20:09:30.820Z,99.90
2019-02-04T20:12:02.010Z,99.90
2019-02-04T20:14:33.612Z,99.90
2019-02-04T20:17:04.761Z,99.90
2019-02-04T20:19:35.342Z,99.90
2019-02-04T20:22:06.242Z,99.90
2019-02-04T20:24:37.221Z,99.90
2019-02-04T20:27:07.976Z,99.90
2019-02-04T20:29:38.785Z,99.90
2019-02-04T20:32:09.578Z,99.90
2019-02-04T20:34:40.147Z,99.90
2019-02-04T20:37:10.927Z,99.90
2019-02-04T20:39:41.572Z,99.90
2019-02-04T20:42:12.144Z,99.90
2019-02-04T20:44:42.989Z,99.90
2019-02-04T20:47:13.827Z,99.90
2019-02-04T20:49:44.446Z,99.90
2019-02-04T20:52:15.512Z,99.90
2019-02-04T20:54:46.120Z,99.90
2019-02-04T20:57:16.873Z,99.90
2019-02-04T20:59:47.485Z,99.90
2019-02-04T21:02:18.202Z,99.90
2019-02-04T21:04:48.801Z,99.90
2019-02-04T21:07:19.616Z,99.90
2019-02-04T21:09:50.220Z,99.90
2019-02-04T21:12:20.961Z,99.90
2019-02-04T21:14:51.582Z,99.90
2019-02-04T21:17:22.510Z,99.90
2019-02-04T21:19:53.964Z,99.90
2019-02-04T21:22:24.558Z,99.90
2019-02-04T21:24:56.674Z,99.90
2019-02-04T21:27:27.353Z,99.90
2019-02-04T21:29:59.218Z,99.90
2019-02-04T21:32:30.231Z,99.90
2019-02-04T21:35:00.794Z,99.90
2019-02-04T21:37:31.565Z,99.90
2019-02-04T21:40:02.317Z,99.90
2019-02-04T21:42:33.227Z,99.90
2019-02-04T21:45:07.048Z,99.90
2019-02-04T21:47:37.751Z,99.90
2019-02-04T21:50:13.135Z,99.90
2019-02-04T21:52:44.238Z,99.90
2019-02-04T21:55:16.027Z,99.90
2019-02-04T21:57:46.928Z,99.90
2019-02-04T22:00:38.759Z,99.90
2019-02-04T22:03:09.413Z,99.90
2019-02-04T22:05:40.393Z,99.90
2019-02-04T22:08:11.586Z,99.90
2019-02-04T22:10:42.625Z,99.90
2019-02-04T22:13:13.212Z,99.90
2019-02-04T22:15:44.236Z,99.90
2019-02-04T22:18:15.185Z,99.90
2019-02-04T22:20:46.769Z,1.00
2019-02-04T22:23:17.459Z,1.00
2019-02-04T22:25:48.659Z,1.00
2019-02-04T22:28:19.423Z,1.00
2019-02-04T22:30:50.472Z,1.00
2019-02-04T22:33:21.231Z,1.00
2019-02-04T22:35:52.315Z,1.00
2019-02-04T22:38:23.232Z,1.00
2019-02-04T22:40:53.813Z,18.40
2019-02-04T22:43:24.536Z,49.10
2019-02-04T22:45:55.121Z,96.30
2019-02-04T22:48:26.242Z,99.90
2019-02-04T22:50:57.024Z,99.90
2019-02-04T22:53:27.911Z,99.90
2019-02-04T22:55:58.928Z,99.90
2019-02-04T22:58:29.678Z,99.90
2019-02-04T23:01:40.015Z,1.00
2019-02-04T23:04:11.255Z,1.00
2019-02-04T23:06:41.924Z,1.00
2019-02-04T23:09:13.196Z,1.00
2019-02-04T23:11:43.919Z,1.00
2019-02-04T23:14:14.858Z,1.00
2019-02-04T23:16:45.799Z,1.00
2019-02-04T23:19:16.493Z,9.50
2019-02-04T23:21:47.564Z,99.90
2019-02-04T23:24:18.469Z,99.90
2019-02-04T23:26:49.114Z,99.90
2019-02-04T23:29:19.703Z,99.90
2019-02-04T23:31:50.709Z,99.90
2019-02-04T23:34:21.301Z,99.90
2019-02-04T23:36:51.936Z,1.00
2019-02-04T23:39:22.827Z,1.00
2019-02-04T23:41:57.536Z,1.00
2019-02-04T23:44:25.818Z,1.00
2019-02-04T23:46:56.496Z,99.90
2019-02-04T23:49:27.379Z,99.90
2019-02-04T23:51:58.167Z,99.90
2019-02-04T23:54:29.043Z,99.90
2019-02-04T23:56:59.631Z,99.90
2019-02-04T23:59:31.229Z,99.90
